Terminal Aerodrome Forecast
Issued by NWS

Home | Current Version | Previous Version | Text Only | Print | Product List | Glossary On
Versions: 1 2 3 4 5 6 7 8 9 10 11 12 13 14 15 16
000
FTUS42 TJSJ 040500 RRA
TAFJSJ
TAF
TJSJ 040539Z 0406/0506 08012G18KT P6SM -RA FEW025 SCT040 BKN080
      TEMPO 0406/0410 VRB18G25KT 5SM SHRA BKN025 BKN040
     FM041000 08012KT P6SM VCSH SCT025 BKN040
     FM041400 08015KT P6SM SCT030 SCT050 SCT070
     FM041600 07018G26KT P6SM FEW035 BKN060
     FM042300 09011KT P6SM SCT030=

USA.gov is the U.S. government's official web portal to all federal, state and local government web resources and services.